sensor_id;sensor_type;location;lat;lon;timestamp;P1;durP1;ratioP1;P2;durP2;ratioP2
79664;SDS011;69132;44.014;20.918;2023-05-19T00:00:17;16.05;;;11.98;;
79664;SDS011;69132;44.014;20.918;2023-05-19T00:02:45;17.13;;;12.02;;
79664;SDS011;69132;44.014;20.918;2023-05-19T00:05:11;20.75;;;14.80;;
79664;SDS011;69132;44.014;20.918;2023-05-19T00:07:39;33.78;;;25.88;;
79664;SDS011;69132;44.014;20.918;2023-05-19T00:10:06;22.80;;;16.90;;
79664;SDS011;69132;44.014;20.918;2023-05-19T00:12:33;21.40;;;13.75;;
79664;SDS011;69132;44.014;20.918;2023-05-19T00:15:00;19.35;;;15.10;;
79664;SDS011;69132;44.014;20.918;2023-05-19T00:17:26;16.83;;;13.50;;
79664;SDS011;69132;44.014;20.918;2023-05-19T00:19:53;18.83;;;13.35;;
79664;SDS011;69132;44.014;20.918;2023-05-19T00:22:19;18.85;;;13.20;;
79664;SDS011;69132;44.014;20.918;2023-05-19T00:24:45;19.65;;;14.13;;
79664;SDS011;69132;44.014;20.918;2023-05-19T00:27:11;20.15;;;13.65;;
79664;SDS011;69132;44.014;20.918;2023-05-19T00:29:38;18.77;;;13.35;;
79664;SDS011;69132;44.014;20.918;2023-05-19T00:32:04;20.15;;;13.75;;
79664;SDS011;69132;44.014;20.918;2023-05-19T00:34:31;20.05;;;15.07;;
79664;SDS011;69132;44.014;20.918;2023-05-19T00:36:58;19.63;;;14.85;;
79664;SDS011;69132;44.014;20.918;2023-05-19T00:39:24;19.30;;;15.20;;
79664;SDS011;69132;44.014;20.918;2023-05-19T00:41:50;22.52;;;15.80;;
79664;SDS011;69132;44.014;20.918;2023-05-19T00:44:16;23.25;;;16.92;;
79664;SDS011;69132;44.014;20.918;2023-05-19T00:46:42;24.38;;;16.98;;
79664;SDS011;69132;44.014;20.918;2023-05-19T00:49:09;24.75;;;18.20;;
79664;SDS011;69132;44.014;20.918;2023-05-19T00:51:36;25.92;;;18.70;;
79664;SDS011;69132;44.014;20.918;2023-05-19T00:54:02;22.05;;;15.73;;
79664;SDS011;69132;44.014;20.918;2023-05-19T00:56:28;17.52;;;14.13;;
79664;SDS011;69132;44.014;20.918;2023-05-19T00:58:56;22.50;;;16.05;;
79664;SDS011;69132;44.014;20.918;2023-05-19T01:01:23;18.65;;;14.98;;
79664;SDS011;69132;44.014;20.918;2023-05-19T01:03:50;19.52;;;14.15;;
79664;SDS011;69132;44.014;20.918;2023-05-19T01:06:22;16.33;;;13.45;;
79664;SDS011;69132;44.014;20.918;2023-05-19T01:08:49;16.85;;;12.63;;
79664;SDS011;69132;44.014;20.918;2023-05-19T01:11:17;18.63;;;13.73;;
79664;SDS011;69132;44.014;20.918;2023-05-19T01:13:43;17.15;;;13.15;;
79664;SDS011;69132;44.014;20.918;2023-05-19T01:18:42;15.05;;;12.95;;
79664;SDS011;69132;44.014;20.918;2023-05-19T01:31:37;21.98;;;16.65;;
79664;SDS011;69132;44.014;20.918;2023-05-19T01:34:05;20.92;;;13.98;;
79664;SDS011;69132;44.014;20.918;2023-05-19T01:36:32;19.55;;;14.15;;
79664;SDS011;69132;44.014;20.918;2023-05-19T01:38:58;21.58;;;15.30;;
79664;SDS011;69132;44.014;20.918;2023-05-19T01:41:25;21.95;;;15.90;;
79664;SDS011;69132;44.014;20.918;2023-05-19T01:43:53;23.70;;;16.97;;
79664;SDS011;69132;44.014;20.918;2023-05-19T01:46:20;20.77;;;16.27;;
79664;SDS011;69132;44.014;20.918;2023-05-19T01:48:46;19.80;;;14.77;;
79664;SDS011;69132;44.014;20.918;2023-05-19T01:51:12;19.73;;;15.05;;
79664;SDS011;69132;44.014;20.918;2023-05-19T01:53:39;19.70;;;15.30;;
79664;SDS011;69132;44.014;20.918;2023-05-19T01:56:05;22.75;;;17.63;;
79664;SDS011;69132;44.014;20.918;2023-05-19T01:58:42;20.20;;;15.90;;
79664;SDS011;69132;44.014;20.918;2023-05-19T02:13:56;19.70;;;14.77;;
79664;SDS011;69132;44.014;20.918;2023-05-19T02:16:26;17.60;;;14.15;;
79664;SDS011;69132;44.014;20.918;2023-05-19T02:18:52;20.75;;;16.27;;
79664;SDS011;69132;44.014;20.918;2023-05-19T02:21:20;17.67;;;14.75;;
79664;SDS011;69132;44.014;20.918;2023-05-19T02:23:47;19.02;;;15.95;;
79664;SDS011;69132;44.014;20.918;2023-05-19T02:26:13;19.63;;;16.75;;
79664;SDS011;69132;44.014;20.918;2023-05-19T02:28:40;20.85;;;16.90;;
79664;SDS011;69132;44.014;20.918;2023-05-19T02:31:06;20.33;;;16.00;;
79664;SDS011;69132;44.014;20.918;2023-05-19T02:33:37;18.50;;;15.15;;
79664;SDS011;69132;44.014;20.918;2023-05-19T02:36:03;21.17;;;17.10;;
79664;SDS011;69132;44.014;20.918;2023-05-19T02:38:29;20.20;;;14.50;;
79664;SDS011;69132;44.014;20.918;2023-05-19T02:40:55;18.98;;;15.15;;
79664;SDS011;69132;44.014;20.918;2023-05-19T02:43:21;17.52;;;14.20;;
79664;SDS011;69132;44.014;20.918;2023-05-19T02:45:48;19.20;;;13.85;;
79664;SDS011;69132;44.014;20.918;2023-05-19T02:48:14;20.73;;;13.93;;
79664;SDS011;69132;44.014;20.918;2023-05-19T02:50:41;19.63;;;15.23;;
79664;SDS011;69132;44.014;20.918;2023-05-19T02:53:07;20.50;;;15.30;;
79664;SDS011;69132;44.014;20.918;2023-05-19T02:55:33;18.92;;;14.32;;
79664;SDS011;69132;44.014;20.918;2023-05-19T02:58:01;18.67;;;14.80;;
79664;SDS011;69132;44.014;20.918;2023-05-19T03:00:27;19.90;;;14.80;;
79664;SDS011;69132;44.014;20.918;2023-05-19T03:02:53;18.70;;;13.90;;
79664;SDS011;69132;44.014;20.918;2023-05-19T03:05:19;21.17;;;15.25;;
79664;SDS011;69132;44.014;20.918;2023-05-19T03:07:45;24.15;;;16.20;;
79664;SDS011;69132;44.014;20.918;2023-05-19T03:10:12;23.38;;;16.45;;
79664;SDS011;69132;44.014;20.918;2023-05-19T03:12:38;21.75;;;16.20;;
79664;SDS011;69132;44.014;20.918;2023-05-19T03:15:05;21.05;;;15.82;;
79664;SDS011;69132;44.014;20.918;2023-05-19T03:17:31;18.83;;;14.95;;
79664;SDS011;69132;44.014;20.918;2023-05-19T03:20:00;20.45;;;14.88;;
79664;SDS011;69132;44.014;20.918;2023-05-19T03:22:26;21.42;;;15.48;;
79664;SDS011;69132;44.014;20.918;2023-05-19T03:24:52;23.65;;;16.73;;
79664;SDS011;69132;44.014;20.918;2023-05-19T03:27:18;23.27;;;16.73;;
79664;SDS011;69132;44.014;20.918;2023-05-19T03:29:44;20.60;;;15.20;;
79664;SDS011;69132;44.014;20.918;2023-05-19T03:32:10;23.95;;;16.55;;
79664;SDS011;69132;44.014;20.918;2023-05-19T03:34:36;22.73;;;16.00;;
79664;SDS011;69132;44.014;20.918;2023-05-19T03:37:02;25.40;;;16.80;;
79664;SDS011;69132;44.014;20.918;2023-05-19T03:39:28;19.77;;;16.33;;
79664;SDS011;69132;44.014;20.918;2023-05-19T03:41:55;19.60;;;14.60;;
79664;SDS011;69132;44.014;20.918;2023-05-19T03:44:21;22.98;;;16.77;;
79664;SDS011;69132;44.014;20.918;2023-05-19T03:46:47;26.25;;;16.67;;
79664;SDS011;69132;44.014;20.918;2023-05-19T03:49:14;23.00;;;16.77;;
79664;SDS011;69132;44.014;20.918;2023-05-19T03:51:41;21.13;;;16.17;;
79664;SDS011;69132;44.014;20.918;2023-05-19T03:54:08;59.60;;;40.78;;
79664;SDS011;69132;44.014;20.918;2023-05-19T03:56:36;38.95;;;27.75;;
79664;SDS011;69132;44.014;20.918;2023-05-19T03:59:06;28.13;;;22.00;;
79664;SDS011;69132;44.014;20.918;2023-05-19T04:01:34;25.73;;;18.90;;
79664;SDS011;69132;44.014;20.918;2023-05-19T04:04:00;23.98;;;18.35;;
79664;SDS011;69132;44.014;20.918;2023-05-19T04:06:27;26.00;;;18.60;;
79664;SDS011;69132;44.014;20.918;2023-05-19T04:08:53;23.52;;;18.35;;
79664;SDS011;69132;44.014;20.918;2023-05-19T04:11:19;30.77;;;21.50;;
79664;SDS011;69132;44.014;20.918;2023-05-19T04:13:46;23.73;;;18.95;;
79664;SDS011;69132;44.014;20.918;2023-05-19T04:16:13;22.40;;;16.75;;
79664;SDS011;69132;44.014;20.918;2023-05-19T04:18:39;28.85;;;21.25;;
79664;SDS011;69132;44.014;20.918;2023-05-19T04:21:06;25.80;;;17.38;;
79664;SDS011;69132;44.014;20.918;2023-05-19T04:23:32;23.95;;;18.73;;
79664;SDS011;69132;44.014;20.918;2023-05-19T04:25:58;27.25;;;18.98;;
79664;SDS011;69132;44.014;20.918;2023-05-19T04:28:26;29.08;;;21.50;;
79664;SDS011;69132;44.014;20.918;2023-05-19T04:30:52;25.40;;;18.83;;
79664;SDS011;69132;44.014;20.918;2023-05-19T04:33:19;26.50;;;20.58;;
79664;SDS011;69132;44.014;20.918;2023-05-19T04:35:53;24.13;;;18.70;;
79664;SDS011;69132;44.014;20.918;2023-05-19T04:38:19;26.17;;;18.80;;
79664;SDS011;69132;44.014;20.918;2023-05-19T04:40:46;28.08;;;19.65;;
79664;SDS011;69132;44.014;20.918;2023-05-19T04:43:14;27.08;;;20.20;;
79664;SDS011;69132;44.014;20.918;2023-05-19T04:45:47;49.97;;;34.00;;
79664;SDS011;69132;44.014;20.918;2023-05-19T04:48:15;36.47;;;26.38;;
79664;SDS011;69132;44.014;20.918;2023-05-19T04:50:41;29.15;;;22.10;;
79664;SDS011;69132;44.014;20.918;2023-05-19T04:53:08;27.63;;;20.33;;
79664;SDS011;69132;44.014;20.918;2023-05-19T04:55:36;28.25;;;20.17;;
79664;SDS011;69132;44.014;20.918;2023-05-19T04:58:03;29.95;;;20.42;;
79664;SDS011;69132;44.014;20.918;2023-05-19T05:00:29;26.50;;;20.77;;
79664;SDS011;69132;44.014;20.918;2023-05-19T05:02:59;32.20;;;21.88;;
79664;SDS011;69132;44.014;20.918;2023-05-19T05:05:29;27.02;;;18.98;;
79664;SDS011;69132;44.014;20.918;2023-05-19T05:07:55;32.58;;;22.45;;
79664;SDS011;69132;44.014;20.918;2023-05-19T05:10:21;35.38;;;23.20;;
79664;SDS011;69132;44.014;20.918;2023-05-19T05:12:47;31.02;;;22.17;;
79664;SDS011;69132;44.014;20.918;2023-05-19T05:15:14;32.78;;;21.67;;
79664;SDS011;69132;44.014;20.918;2023-05-19T05:17:40;30.88;;;21.70;;
79664;SDS011;69132;44.014;20.918;2023-05-19T05:20:08;27.13;;;20.05;;
79664;SDS011;69132;44.014;20.918;2023-05-19T05:22:35;28.30;;;19.97;;
79664;SDS011;69132;44.014;20.918;2023-05-19T05:25:02;30.77;;;21.05;;
79664;SDS011;69132;44.014;20.918;2023-05-19T05:27:29;31.23;;;20.52;;
79664;SDS011;69132;44.014;20.918;2023-05-19T05:29:57;33.50;;;23.60;;
79664;SDS011;69132;44.014;20.918;2023-05-19T05:32:23;29.73;;;20.48;;
79664;SDS011;69132;44.014;20.918;2023-05-19T05:34:49;33.42;;;21.02;;
79664;SDS011;69132;44.014;20.918;2023-05-19T05:37:16;25.60;;;18.30;;
79664;SDS011;69132;44.014;20.918;2023-05-19T05:39:44;32.63;;;19.38;;
79664;SDS011;69132;44.014;20.918;2023-05-19T05:42:10;26.80;;;18.50;;
79664;SDS011;69132;44.014;20.918;2023-05-19T05:44:36;33.58;;;19.02;;
79664;SDS011;69132;44.014;20.918;2023-05-19T05:47:03;25.83;;;18.55;;
79664;SDS011;69132;44.014;20.918;2023-05-19T05:49:32;24.10;;;18.38;;
79664;SDS011;69132;44.014;20.918;2023-05-19T05:52:02;28.55;;;19.85;;
79664;SDS011;69132;44.014;20.918;2023-05-19T05:54:29;24.13;;;17.63;;
79664;SDS011;69132;44.014;20.918;2023-05-19T05:56:55;26.40;;;19.50;;
79664;SDS011;69132;44.014;20.918;2023-05-19T05:59:21;26.80;;;17.50;;
79664;SDS011;69132;44.014;20.918;2023-05-19T06:01:50;28.60;;;19.15;;
79664;SDS011;69132;44.014;20.918;2023-05-19T06:04:16;27.85;;;18.70;;
79664;SDS011;69132;44.014;20.918;2023-05-19T06:06:42;26.95;;;20.13;;
79664;SDS011;69132;44.014;20.918;2023-05-19T06:11:44;28.77;;;18.05;;
79664;SDS011;69132;44.014;20.918;2023-05-19T06:14:10;24.13;;;16.65;;
79664;SDS011;69132;44.014;20.918;2023-05-19T06:16:36;26.52;;;16.67;;
79664;SDS011;69132;44.014;20.918;2023-05-19T06:19:03;24.48;;;16.83;;
79664;SDS011;69132;44.014;20.918;2023-05-19T06:21:29;26.63;;;18.33;;
79664;SDS011;69132;44.014;20.918;2023-05-19T06:23:55;24.38;;;16.55;;
79664;SDS011;69132;44.014;20.918;2023-05-19T06:26:21;25.23;;;17.30;;
79664;SDS011;69132;44.014;20.918;2023-05-19T06:28:47;25.15;;;16.83;;
79664;SDS011;69132;44.014;20.918;2023-05-19T06:31:19;31.65;;;21.35;;
79664;SDS011;69132;44.014;20.918;2023-05-19T06:33:45;33.47;;;22.75;;
79664;SDS011;69132;44.014;20.918;2023-05-19T06:36:12;31.92;;;21.80;;
79664;SDS011;69132;44.014;20.918;2023-05-19T06:38:39;27.15;;;19.05;;
79664;SDS011;69132;44.014;20.918;2023-05-19T06:41:05;30.13;;;19.50;;
79664;SDS011;69132;44.014;20.918;2023-05-19T06:43:31;28.13;;;18.50;;
79664;SDS011;69132;44.014;20.918;2023-05-19T06:45:57;27.70;;;17.63;;
79664;SDS011;69132;44.014;20.918;2023-05-19T06:48:23;27.58;;;19.25;;
79664;SDS011;69132;44.014;20.918;2023-05-19T06:50:49;26.55;;;17.35;;
79664;SDS011;69132;44.014;20.918;2023-05-19T06:53:17;25.08;;;18.13;;
79664;SDS011;69132;44.014;20.918;2023-05-19T06:55:44;30.13;;;20.63;;
79664;SDS011;69132;44.014;20.918;2023-05-19T06:58:14;33.40;;;22.20;;
79664;SDS011;69132;44.014;20.918;2023-05-19T07:00:41;26.02;;;19.05;;
79664;SDS011;69132;44.014;20.918;2023-05-19T07:03:08;31.70;;;20.42;;
79664;SDS011;69132;44.014;20.918;2023-05-19T07:05:35;25.58;;;18.48;;
79664;SDS011;69132;44.014;20.918;2023-05-19T07:08:01;27.92;;;19.42;;
79664;SDS011;69132;44.014;20.918;2023-05-19T07:10:28;32.47;;;19.58;;
79664;SDS011;69132;44.014;20.918;2023-05-19T07:12:54;35.47;;;19.42;;
79664;SDS011;69132;44.014;20.918;2023-05-19T07:15:20;31.73;;;20.67;;
79664;SDS011;69132;44.014;20.918;2023-05-19T07:17:46;32.92;;;22.23;;
79664;SDS011;69132;44.014;20.918;2023-05-19T07:20:12;27.90;;;19.48;;
79664;SDS011;69132;44.014;20.918;2023-05-19T07:22:38;28.95;;;20.35;;
79664;SDS011;69132;44.014;20.918;2023-05-19T07:25:05;30.27;;;22.98;;
79664;SDS011;69132;44.014;20.918;2023-05-19T07:27:32;31.30;;;21.13;;
79664;SDS011;69132;44.014;20.918;2023-05-19T07:29:58;30.15;;;21.83;;
79664;SDS011;69132;44.014;20.918;2023-05-19T07:32:25;28.77;;;20.38;;
79664;SDS011;69132;44.014;20.918;2023-05-19T07:34:51;28.88;;;19.90;;
79664;SDS011;69132;44.014;20.918;2023-05-19T07:37:18;26.35;;;19.02;;
79664;SDS011;69132;44.014;20.918;2023-05-19T07:39:44;24.90;;;18.52;;
79664;SDS011;69132;44.014;20.918;2023-05-19T07:42:10;31.65;;;20.73;;
79664;SDS011;69132;44.014;20.918;2023-05-19T07:44:36;25.77;;;18.23;;
79664;SDS011;69132;44.014;20.918;2023-05-19T07:47:03;29.88;;;19.25;;
79664;SDS011;69132;44.014;20.918;2023-05-19T07:49:29;27.90;;;18.13;;
79664;SDS011;69132;44.014;20.918;2023-05-19T07:51:57;26.73;;;18.40;;
79664;SDS011;69132;44.014;20.918;2023-05-19T07:54:23;28.77;;;19.60;;
79664;SDS011;69132;44.014;20.918;2023-05-19T07:56:51;26.70;;;18.73;;
79664;SDS011;69132;44.014;20.918;2023-05-19T07:59:18;24.48;;;18.15;;
79664;SDS011;69132;44.014;20.918;2023-05-19T08:01:44;23.50;;;17.70;;
79664;SDS011;69132;44.014;20.918;2023-05-19T08:04:11;26.02;;;18.40;;
79664;SDS011;69132;44.014;20.918;2023-05-19T08:06:38;29.45;;;19.13;;
79664;SDS011;69132;44.014;20.918;2023-05-19T08:09:06;29.27;;;19.10;;
79664;SDS011;69132;44.014;20.918;2023-05-19T08:11:32;28.30;;;19.88;;
79664;SDS011;69132;44.014;20.918;2023-05-19T08:13:59;24.13;;;17.40;;
79664;SDS011;69132;44.014;20.918;2023-05-19T08:16:25;25.48;;;17.20;;
79664;SDS011;69132;44.014;20.918;2023-05-19T08:18:51;25.67;;;17.17;;
79664;SDS011;69132;44.014;20.918;2023-05-19T08:21:18;25.23;;;17.25;;
79664;SDS011;69132;44.014;20.918;2023-05-19T08:23:47;31.02;;;19.23;;
79664;SDS011;69132;44.014;20.918;2023-05-19T08:26:13;31.92;;;22.40;;
79664;SDS011;69132;44.014;20.918;2023-05-19T08:28:39;30.40;;;20.95;;
79664;SDS011;69132;44.014;20.918;2023-05-19T08:31:05;34.20;;;22.52;;
79664;SDS011;69132;44.014;20.918;2023-05-19T08:33:31;35.97;;;21.88;;
79664;SDS011;69132;44.014;20.918;2023-05-19T08:35:57;36.97;;;23.50;;
79664;SDS011;69132;44.014;20.918;2023-05-19T08:38:41;37.05;;;25.98;;
79664;SDS011;69132;44.014;20.918;2023-05-19T08:41:07;34.38;;;23.17;;
79664;SDS011;69132;44.014;20.918;2023-05-19T08:43:34;29.00;;;20.38;;
79664;SDS011;69132;44.014;20.918;2023-05-19T08:46:01;26.83;;;18.80;;
79664;SDS011;69132;44.014;20.918;2023-05-19T08:48:30;30.05;;;20.30;;
79664;SDS011;69132;44.014;20.918;2023-05-19T08:51:04;29.50;;;19.83;;
79664;SDS011;69132;44.014;20.918;2023-05-19T08:53:35;27.33;;;19.80;;
79664;SDS011;69132;44.014;20.918;2023-05-19T08:56:07;33.45;;;20.35;;
79664;SDS011;69132;44.014;20.918;2023-05-19T08:58:38;35.15;;;22.00;;
79664;SDS011;69132;44.014;20.918;2023-05-19T09:01:08;35.75;;;19.63;;
79664;SDS011;69132;44.014;20.918;2023-05-19T09:03:35;24.25;;;17.33;;
79664;SDS011;69132;44.014;20.918;2023-05-19T09:06:07;25.77;;;16.92;;
79664;SDS011;69132;44.014;20.918;2023-05-19T09:08:38;31.15;;;19.35;;
79664;SDS011;69132;44.014;20.918;2023-05-19T09:11:04;25.23;;;18.17;;
79664;SDS011;69132;44.014;20.918;2023-05-19T09:13:30;29.88;;;18.45;;
79664;SDS011;69132;44.014;20.918;2023-05-19T09:15:56;28.33;;;20.13;;
79664;SDS011;69132;44.014;20.918;2023-05-19T09:18:23;33.08;;;21.48;;
79664;SDS011;69132;44.014;20.918;2023-05-19T09:20:50;25.10;;;18.83;;
79664;SDS011;69132;44.014;20.918;2023-05-19T09:23:23;30.98;;;20.85;;
79664;SDS011;69132;44.014;20.918;2023-05-19T09:25:52;31.48;;;22.48;;
79664;SDS011;69132;44.014;20.918;2023-05-19T09:28:52;30.17;;;21.17;;
79664;SDS011;69132;44.014;20.918;2023-05-19T09:31:12;32.40;;;21.58;;
79664;SDS011;69132;44.014;20.918;2023-05-19T09:33:39;33.80;;;22.00;;
79664;SDS011;69132;44.014;20.918;2023-05-19T09:36:08;26.17;;;20.35;;
79664;SDS011;69132;44.014;20.918;2023-05-19T09:38:35;31.30;;;19.90;;
79664;SDS011;69132;44.014;20.918;2023-05-19T09:41:02;28.88;;;20.23;;
79664;SDS011;69132;44.014;20.918;2023-05-19T09:43:31;29.52;;;19.80;;
79664;SDS011;69132;44.014;20.918;2023-05-19T09:46:07;37.22;;;21.45;;
79664;SDS011;69132;44.014;20.918;2023-05-19T09:48:35;29.85;;;20.20;;
79664;SDS011;69132;44.014;20.918;2023-05-19T09:51:02;27.60;;;19.67;;
79664;SDS011;69132;44.014;20.918;2023-05-19T09:53:29;32.05;;;21.13;;
79664;SDS011;69132;44.014;20.918;2023-05-19T09:55:56;39.60;;;20.58;;
79664;SDS011;69132;44.014;20.918;2023-05-19T09:58:23;29.45;;;19.92;;
79664;SDS011;69132;44.014;20.918;2023-05-19T10:00:50;32.38;;;19.67;;
79664;SDS011;69132;44.014;20.918;2023-05-19T10:03:21;27.90;;;18.95;;
79664;SDS011;69132;44.014;20.918;2023-05-19T10:05:48;26.05;;;18.65;;
79664;SDS011;69132;44.014;20.918;2023-05-19T10:08:15;30.80;;;20.20;;
79664;SDS011;69132;44.014;20.918;2023-05-19T10:10:42;31.63;;;22.80;;
79664;SDS011;69132;44.014;20.918;2023-05-19T10:13:11;28.17;;;19.92;;
79664;SDS011;69132;44.014;20.918;2023-05-19T10:15:40;28.25;;;18.77;;
79664;SDS011;69132;44.014;20.918;2023-05-19T10:18:09;31.35;;;20.30;;
79664;SDS011;69132;44.014;20.918;2023-05-19T10:20:38;28.25;;;19.27;;
79664;SDS011;69132;44.014;20.918;2023-05-19T10:23:05;28.65;;;19.27;;
79664;SDS011;69132;44.014;20.918;2023-05-19T10:25:31;30.58;;;20.13;;
79664;SDS011;69132;44.014;20.918;2023-05-19T10:30:31;27.00;;;17.90;;
79664;SDS011;69132;44.014;20.918;2023-05-19T10:32:59;29.48;;;20.95;;
79664;SDS011;69132;44.014;20.918;2023-05-19T10:35:29;28.65;;;20.50;;
79664;SDS011;69132;44.014;20.918;2023-05-19T10:45:52;28.05;;;19.48;;
79664;SDS011;69132;44.014;20.918;2023-05-19T10:48:22;24.02;;;16.35;;
79664;SDS011;69132;44.014;20.918;2023-05-19T10:50:51;24.17;;;17.50;;
79664;SDS011;69132;44.014;20.918;2023-05-19T10:53:18;21.15;;;16.45;;
79664;SDS011;69132;44.014;20.918;2023-05-19T10:55:51;23.30;;;16.17;;
79664;SDS011;69132;44.014;20.918;2023-05-19T11:01:06;31.80;;;20.17;;
79664;SDS011;69132;44.014;20.918;2023-05-19T11:03:43;23.95;;;16.83;;
79664;SDS011;69132;44.014;20.918;2023-05-19T11:06:20;23.83;;;15.35;;
79664;SDS011;69132;44.014;20.918;2023-05-19T11:08:50;26.45;;;16.80;;
79664;SDS011;69132;44.014;20.918;2023-05-19T11:11:18;20.63;;;14.55;;
79664;SDS011;69132;44.014;20.918;2023-05-19T11:13:45;21.65;;;15.63;;
79664;SDS011;69132;44.014;20.918;2023-05-19T11:16:13;21.17;;;15.07;;
79664;SDS011;69132;44.014;20.918;2023-05-19T11:18:39;19.48;;;14.75;;
79664;SDS011;69132;44.014;20.918;2023-05-19T11:21:06;20.45;;;15.73;;
79664;SDS011;69132;44.014;20.918;2023-05-19T11:23:32;24.70;;;16.90;;
79664;SDS011;69132;44.014;20.918;2023-05-19T11:26:05;23.10;;;16.10;;
79664;SDS011;69132;44.014;20.918;2023-05-19T11:28:34;24.25;;;15.65;;
79664;SDS011;69132;44.014;20.918;2023-05-19T11:31:00;24.20;;;16.80;;
79664;SDS011;69132;44.014;20.918;2023-05-19T11:33:27;23.73;;;17.02;;
79664;SDS011;69132;44.014;20.918;2023-05-19T11:35:54;22.20;;;15.95;;
79664;SDS011;69132;44.014;20.918;2023-05-19T11:38:22;19.52;;;15.90;;
79664;SDS011;69132;44.014;20.918;2023-05-19T11:40:48;19.52;;;15.40;;
79664;SDS011;69132;44.014;20.918;2023-05-19T11:43:17;20.13;;;15.02;;
79664;SDS011;69132;44.014;20.918;2023-05-19T11:45:43;19.25;;;15.70;;
79664;SDS011;69132;44.014;20.918;2023-05-19T11:48:11;26.15;;;18.50;;
79664;SDS011;69132;44.014;20.918;2023-05-19T11:50:39;25.08;;;17.13;;
79664;SDS011;69132;44.014;20.918;2023-05-19T11:55:31;19.83;;;15.55;;
79664;SDS011;69132;44.014;20.918;2023-05-19T11:57:58;28.15;;;20.58;;
79664;SDS011;69132;44.014;20.918;2023-05-19T12:00:25;21.52;;;15.98;;
79664;SDS011;69132;44.014;20.918;2023-05-19T12:02:52;36.83;;;24.00;;
79664;SDS011;69132;44.014;20.918;2023-05-19T12:05:20;22.10;;;17.02;;
79664;SDS011;69132;44.014;20.918;2023-05-19T12:07:46;22.75;;;18.58;;
79664;SDS011;69132;44.014;20.918;2023-05-19T12:10:25;20.08;;;16.75;;
79664;SDS011;69132;44.014;20.918;2023-05-19T12:12:52;20.13;;;17.23;;
79664;SDS011;69132;44.014;20.918;2023-05-19T12:15:20;21.30;;;16.90;;
79664;SDS011;69132;44.014;20.918;2023-05-19T12:17:54;21.42;;;17.85;;
79664;SDS011;69132;44.014;20.918;2023-05-19T12:20:23;17.55;;;15.65;;
79664;SDS011;69132;44.014;20.918;2023-05-19T12:22:50;20.77;;;16.88;;
79664;SDS011;69132;44.014;20.918;2023-05-19T12:25:17;21.27;;;18.08;;
79664;SDS011;69132;44.014;20.918;2023-05-19T12:27:43;22.00;;;17.20;;
79664;SDS011;69132;44.014;20.918;2023-05-19T12:30:12;21.95;;;18.55;;
79664;SDS011;69132;44.014;20.918;2023-05-19T12:32:38;22.13;;;17.33;;
79664;SDS011;69132;44.014;20.918;2023-05-19T12:35:05;22.08;;;18.10;;
79664;SDS011;69132;44.014;20.918;2023-05-19T12:37:32;23.60;;;17.70;;
79664;SDS011;69132;44.014;20.918;2023-05-19T12:39:59;24.40;;;18.90;;
79664;SDS011;69132;44.014;20.918;2023-05-19T12:42:26;28.33;;;19.52;;
79664;SDS011;69132;44.014;20.918;2023-05-19T12:44:56;21.50;;;17.73;;
79664;SDS011;69132;44.014;20.918;2023-05-19T12:47:32;23.90;;;19.92;;
79664;SDS011;69132;44.014;20.918;2023-05-19T12:52:25;22.27;;;18.27;;
79664;SDS011;69132;44.014;20.918;2023-05-19T12:57:25;22.73;;;20.08;;
79664;SDS011;69132;44.014;20.918;2023-05-19T12:59:51;23.92;;;21.13;;
79664;SDS011;69132;44.014;20.918;2023-05-19T13:05:07;30.73;;;22.15;;
79664;SDS011;69132;44.014;20.918;2023-05-19T13:07:33;24.73;;;20.02;;
79664;SDS011;69132;44.014;20.918;2023-05-19T13:09:59;27.58;;;21.95;;
79664;SDS011;69132;44.014;20.918;2023-05-19T13:12:26;29.00;;;21.80;;
79664;SDS011;69132;44.014;20.918;2023-05-19T13:14:52;24.13;;;19.35;;
79664;SDS011;69132;44.014;20.918;2023-05-19T13:17:18;26.55;;;22.45;;
79664;SDS011;69132;44.014;20.918;2023-05-19T13:19:44;27.58;;;22.65;;
79664;SDS011;69132;44.014;20.918;2023-05-19T13:22:12;27.05;;;22.38;;
79664;SDS011;69132;44.014;20.918;2023-05-19T13:24:39;31.25;;;24.65;;
79664;SDS011;69132;44.014;20.918;2023-05-19T13:27:05;30.58;;;22.50;;
79664;SDS011;69132;44.014;20.918;2023-05-19T13:29:31;25.55;;;22.13;;
79664;SDS011;69132;44.014;20.918;2023-05-19T13:31:57;27.55;;;20.98;;
79664;SDS011;69132;44.014;20.918;2023-05-19T13:34:26;30.50;;;21.77;;
79664;SDS011;69132;44.014;20.918;2023-05-19T13:36:52;30.27;;;22.45;;
79664;SDS011;69132;44.014;20.918;2023-05-19T13:39:18;41.55;;;31.33;;
79664;SDS011;69132;44.014;20.918;2023-05-19T13:41:44;25.77;;;22.23;;
79664;SDS011;69132;44.014;20.918;2023-05-19T13:44:10;30.80;;;24.48;;
79664;SDS011;69132;44.014;20.918;2023-05-19T13:46:36;53.33;;;36.72;;
79664;SDS011;69132;44.014;20.918;2023-05-19T13:49:02;27.05;;;22.10;;
79664;SDS011;69132;44.014;20.918;2023-05-19T13:51:28;28.95;;;22.40;;
79664;SDS011;69132;44.014;20.918;2023-05-19T13:53:55;31.52;;;24.40;;
79664;SDS011;69132;44.014;20.918;2023-05-19T13:56:22;28.65;;;23.02;;
79664;SDS011;69132;44.014;20.918;2023-05-19T13:58:50;27.58;;;22.85;;
79664;SDS011;69132;44.014;20.918;2023-05-19T14:01:19;33.28;;;25.63;;
79664;SDS011;69132;44.014;20.918;2023-05-19T14:03:45;31.27;;;24.58;;
79664;SDS011;69132;44.014;20.918;2023-05-19T14:06:12;32.17;;;24.52;;
79664;SDS011;69132;44.014;20.918;2023-05-19T14:11:31;27.63;;;23.25;;
79664;SDS011;69132;44.014;20.918;2023-05-19T14:13:58;29.55;;;23.42;;
79664;SDS011;69132;44.014;20.918;2023-05-19T14:16:24;27.98;;;22.88;;
79664;SDS011;69132;44.014;20.918;2023-05-19T14:18:52;29.60;;;24.50;;
79664;SDS011;69132;44.014;20.918;2023-05-19T14:21:19;27.83;;;22.67;;
79664;SDS011;69132;44.014;20.918;2023-05-19T14:23:45;35.90;;;27.48;;
79664;SDS011;69132;44.014;20.918;2023-05-19T14:26:11;32.42;;;25.30;;
79664;SDS011;69132;44.014;20.918;2023-05-19T14:28:37;30.02;;;24.10;;
79664;SDS011;69132;44.014;20.918;2023-05-19T14:31:04;34.17;;;25.42;;
79664;SDS011;69132;44.014;20.918;2023-05-19T14:33:30;33.65;;;26.25;;
79664;SDS011;69132;44.014;20.918;2023-05-19T14:35:57;57.53;;;40.58;;
79664;SDS011;69132;44.014;20.918;2023-05-19T14:38:26;43.85;;;31.88;;
79664;SDS011;69132;44.014;20.918;2023-05-19T14:40:52;32.63;;;25.05;;
79664;SDS011;69132;44.014;20.918;2023-05-19T14:43:22;28.67;;;22.17;;
79664;SDS011;69132;44.014;20.918;2023-05-19T14:45:48;34.40;;;25.97;;
79664;SDS011;69132;44.014;20.918;2023-05-19T14:48:14;25.58;;;22.50;;
79664;SDS011;69132;44.014;20.918;2023-05-19T14:50:41;29.02;;;23.05;;
79664;SDS011;69132;44.014;20.918;2023-05-19T14:53:09;28.90;;;23.77;;
79664;SDS011;69132;44.014;20.918;2023-05-19T14:55:35;46.45;;;33.13;;
79664;SDS011;69132;44.014;20.918;2023-05-19T14:58:01;29.90;;;23.17;;
79664;SDS011;69132;44.014;20.918;2023-05-19T15:00:28;30.95;;;23.88;;
79664;SDS011;69132;44.014;20.918;2023-05-19T15:02:54;26.85;;;21.05;;